sensor_id;sensor_type;location;lat;lon;timestamp;pressure;altitude;pressure_sealevel;temperature;humidity
77366;BME280;66430;50.182;11.704;2023-04-15T00:00:44;93568.37;;;7.80;43.33
77366;BME280;66430;50.182;11.704;2023-04-15T00:03:10;93575.15;;;8.07;43.19
77366;BME280;66430;50.182;11.704;2023-04-15T00:05:35;93577.57;;;7.81;43.36
77366;BME280;66430;50.182;11.704;2023-04-15T00:08:06;93567.57;;;7.14;43.39
77366;BME280;66430;50.182;11.704;2023-04-15T00:10:26;93571.15;;;7.21;43.89
77366;BME280;66430;50.182;11.704;2023-04-15T00:12:52;93569.71;;;7.73;43.39
77366;BME280;66430;50.182;11.704;2023-04-15T00:15:17;93574.97;;;7.64;43.31
77366;BME280;66430;50.182;11.704;2023-04-15T00:17:43;93563.33;;;7.43;43.82
77366;BME280;66430;50.182;11.704;2023-04-15T00:20:09;93560.81;;;7.15;43.79
77366;BME280;66430;50.182;11.704;2023-04-15T00:22:34;93562.53;;;7.59;43.40
77366;BME280;66430;50.182;11.704;2023-04-15T00:24:59;93557.93;;;7.55;43.38
77366;BME280;66430;50.182;11.704;2023-04-15T00:27:25;93557.84;;;7.36;43.90
77366;BME280;66430;50.182;11.704;2023-04-15T00:29:50;93557.42;;;7.45;43.57
77366;BME280;66430;50.182;11.704;2023-04-15T00:32:16;93551.44;;;7.30;43.55
77366;BME280;66430;50.182;11.704;2023-04-15T00:34:41;93552.38;;;7.74;43.68
77366;BME280;66430;50.182;11.704;2023-04-15T00:37:08;93557.13;;;8.03;43.28
77366;BME280;66430;50.182;11.704;2023-04-15T00:39:33;93549.91;;;7.67;43.61
77366;BME280;66430;50.182;11.704;2023-04-15T00:41:58;93548.03;;;7.60;43.44
77366;BME280;66430;50.182;11.704;2023-04-15T00:44:24;93548.74;;;7.44;43.42
77366;BME280;66430;50.182;11.704;2023-04-15T00:46:50;93542.74;;;7.48;43.72
77366;BME280;66430;50.182;11.704;2023-04-15T00:49:14;93550.09;;;6.94;44.37
77366;BME280;66430;50.182;11.704;2023-04-15T00:51:40;93544.88;;;7.41;44.58
77366;BME280;66430;50.182;11.704;2023-04-15T00:54:05;93546.03;;;7.75;44.06
77366;BME280;66430;50.182;11.704;2023-04-15T00:56:34;93544.14;;;7.52;44.09
77366;BME280;66430;50.182;11.704;2023-04-15T00:58:58;93538.85;;;7.82;44.07
77366;BME280;66430;50.182;11.704;2023-04-15T01:01:24;93537.25;;;7.59;44.18
77366;BME280;66430;50.182;11.704;2023-04-15T01:03:50;93536.24;;;7.26;44.51
77366;BME280;66430;50.182;11.704;2023-04-15T01:06:13;93534.66;;;7.35;44.55
77366;BME280;66430;50.182;11.704;2023-04-15T01:08:38;93531.86;;;6.92;45.54
77366;BME280;66430;50.182;11.704;2023-04-15T01:11:03;93530.88;;;7.12;45.07
77366;BME280;66430;50.182;11.704;2023-04-15T01:13:29;93533.02;;;7.45;44.91
77366;BME280;66430;50.182;11.704;2023-04-15T01:15:56;93528.93;;;7.31;44.89
77366;BME280;66430;50.182;11.704;2023-04-15T01:18:20;93525.55;;;7.29;45.11
77366;BME280;66430;50.182;11.704;2023-04-15T01:20:45;93520.01;;;8.15;44.19
77366;BME280;66430;50.182;11.704;2023-04-15T01:23:12;93515.95;;;7.58;44.33
77366;BME280;66430;50.182;11.704;2023-04-15T01:25:37;93516.42;;;7.88;44.39
77366;BME280;66430;50.182;11.704;2023-04-15T01:28:02;93511.72;;;7.94;44.24
77366;BME280;66430;50.182;11.704;2023-04-15T01:30:28;93513.06;;;7.93;43.87
77366;BME280;66430;50.182;11.704;2023-04-15T01:32:53;93510.93;;;7.93;43.93
77366;BME280;66430;50.182;11.704;2023-04-15T01:35:19;93523.47;;;7.09;43.74
77366;BME280;66430;50.182;11.704;2023-04-15T01:37:44;93513.45;;;7.17;44.59
77366;BME280;66430;50.182;11.704;2023-04-15T01:40:10;93520.10;;;7.55;44.57
77366;BME280;66430;50.182;11.704;2023-04-15T01:42:36;93511.77;;;7.22;44.03
77366;BME280;66430;50.182;11.704;2023-04-15T01:45:01;93511.48;;;7.97;43.81
77366;BME280;66430;50.182;11.704;2023-04-15T01:47:26;93509.35;;;7.53;43.33
77366;BME280;66430;50.182;11.704;2023-04-15T01:49:52;93509.28;;;7.13;44.29
77366;BME280;66430;50.182;11.704;2023-04-15T01:52:18;93503.34;;;7.61;43.78
77366;BME280;66430;50.182;11.704;2023-04-15T01:54:43;93506.49;;;7.71;43.91
77366;BME280;66430;50.182;11.704;2023-04-15T01:57:09;93505.53;;;7.53;43.72
77366;BME280;66430;50.182;11.704;2023-04-15T01:59:35;93501.93;;;7.27;43.79
77366;BME280;66430;50.182;11.704;2023-04-15T02:02:00;93499.36;;;7.28;43.83
77366;BME280;66430;50.182;11.704;2023-04-15T02:04:25;93494.80;;;7.33;43.96
77366;BME280;66430;50.182;11.704;2023-04-15T02:06:51;93500.90;;;7.53;43.80
77366;BME280;66430;50.182;11.704;2023-04-15T02:09:16;93500.34;;;7.14;44.26
77366;BME280;66430;50.182;11.704;2023-04-15T02:11:42;93501.43;;;7.48;43.89
77366;BME280;66430;50.182;11.704;2023-04-15T02:14:07;93500.04;;;7.16;44.31
77366;BME280;66430;50.182;11.704;2023-04-15T02:16:33;93498.41;;;7.66;43.69
77366;BME280;66430;50.182;11.704;2023-04-15T02:18:59;93492.50;;;7.44;43.97
77366;BME280;66430;50.182;11.704;2023-04-15T02:21:25;93487.95;;;7.86;43.67
77366;BME280;66430;50.182;11.704;2023-04-15T02:23:49;93487.17;;;7.50;44.34
77366;BME280;66430;50.182;11.704;2023-04-15T02:26:15;93486.08;;;7.54;44.05
77366;BME280;66430;50.182;11.704;2023-04-15T02:28:41;93481.27;;;7.19;44.11
77366;BME280;66430;50.182;11.704;2023-04-15T02:31:06;93482.27;;;7.40;44.81
77366;BME280;66430;50.182;11.704;2023-04-15T02:33:32;93480.61;;;7.29;44.18
77366;BME280;66430;50.182;11.704;2023-04-15T02:35:57;93483.81;;;7.89;43.83
77366;BME280;66430;50.182;11.704;2023-04-15T02:38:23;93482.27;;;7.67;43.76
77366;BME280;66430;50.182;11.704;2023-04-15T02:40:48;93487.93;;;7.55;43.97
77366;BME280;66430;50.182;11.704;2023-04-15T02:43:14;93482.82;;;7.38;44.45
77366;BME280;66430;50.182;11.704;2023-04-15T02:45:39;93482.91;;;7.38;44.41
77366;BME280;66430;50.182;11.704;2023-04-15T02:48:05;93479.93;;;7.21;43.90
77366;BME280;66430;50.182;11.704;2023-04-15T02:50:30;93478.52;;;7.46;43.90
77366;BME280;66430;50.182;11.704;2023-04-15T02:52:56;93478.17;;;7.46;44.13
77366;BME280;66430;50.182;11.704;2023-04-15T02:55:22;93479.60;;;7.45;43.99
77366;BME280;66430;50.182;11.704;2023-04-15T02:57:50;93477.71;;;7.54;43.93
77366;BME280;66430;50.182;11.704;2023-04-15T03:00:13;93476.40;;;7.26;44.02
77366;BME280;66430;50.182;11.704;2023-04-15T03:05:03;93477.34;;;7.19;43.97
77366;BME280;66430;50.182;11.704;2023-04-15T03:07:28;93479.35;;;7.77;43.72
77366;BME280;66430;50.182;11.704;2023-04-15T03:09:54;93477.10;;;7.35;44.40
77366;BME280;66430;50.182;11.704;2023-04-15T03:12:19;93477.87;;;7.30;44.27
77366;BME280;66430;50.182;11.704;2023-04-15T03:14:44;93480.27;;;7.41;44.05
77366;BME280;66430;50.182;11.704;2023-04-15T03:17:10;93475.26;;;7.49;44.04
77366;BME280;66430;50.182;11.704;2023-04-15T03:19:35;93484.16;;;7.59;44.17
77366;BME280;66430;50.182;11.704;2023-04-15T03:22:00;93485.15;;;7.47;44.22
77366;BME280;66430;50.182;11.704;2023-04-15T03:24:26;93480.80;;;7.17;44.96
77366;BME280;66430;50.182;11.704;2023-04-15T03:26:51;93479.95;;;7.01;45.02
77366;BME280;66430;50.182;11.704;2023-04-15T03:29:17;93480.60;;;7.51;44.02
77366;BME280;66430;50.182;11.704;2023-04-15T03:31:43;93477.32;;;7.25;44.45
77366;BME280;66430;50.182;11.704;2023-04-15T03:34:08;93477.83;;;7.27;44.66
77366;BME280;66430;50.182;11.704;2023-04-15T03:36:34;93475.88;;;6.69;44.53
77366;BME280;66430;50.182;11.704;2023-04-15T03:38:59;93478.40;;;7.17;44.64
77366;BME280;66430;50.182;11.704;2023-04-15T03:41:25;93476.82;;;6.88;44.53
77366;BME280;66430;50.182;11.704;2023-04-15T03:43:50;93476.99;;;6.99;44.88
77366;BME280;66430;50.182;11.704;2023-04-15T03:46:16;93478.05;;;6.84;45.04
77366;BME280;66430;50.182;11.704;2023-04-15T03:48:41;93471.88;;;6.88;44.43
77366;BME280;66430;50.182;11.704;2023-04-15T03:51:07;93469.84;;;6.64;45.16
77366;BME280;66430;50.182;11.704;2023-04-15T03:53:33;93469.98;;;6.51;45.70
77366;BME280;66430;50.182;11.704;2023-04-15T03:55:58;93467.24;;;6.70;45.07
77366;BME280;66430;50.182;11.704;2023-04-15T03:58:24;93466.62;;;6.78;44.90
77366;BME280;66430;50.182;11.704;2023-04-15T04:00:50;93464.12;;;6.80;44.73
77366;BME280;66430;50.182;11.704;2023-04-15T04:03:15;93460.12;;;6.74;45.06
77366;BME280;66430;50.182;11.704;2023-04-15T04:05:40;93470.34;;;6.36;45.91
77366;BME280;66430;50.182;11.704;2023-04-15T04:08:07;93465.82;;;6.75;45.15
77366;BME280;66430;50.182;11.704;2023-04-15T04:10:32;93472.21;;;7.07;44.77
77366;BME280;66430;50.182;11.704;2023-04-15T04:12:57;93467.27;;;7.15;44.30
77366;BME280;66430;50.182;11.704;2023-04-15T04:15:24;93461.05;;;7.50;44.15
77366;BME280;66430;50.182;11.704;2023-04-15T04:17:48;93461.76;;;7.04;44.79
77366;BME280;66430;50.182;11.704;2023-04-15T04:20:14;93457.85;;;7.23;44.45
77366;BME280;66430;50.182;11.704;2023-04-15T04:22:40;93457.27;;;7.02;44.65
77366;BME280;66430;50.182;11.704;2023-04-15T04:25:06;93454.25;;;7.20;43.86
77366;BME280;66430;50.182;11.704;2023-04-15T04:27:30;93454.11;;;6.56;44.82
77366;BME280;66430;50.182;11.704;2023-04-15T04:29:56;93451.71;;;7.18;43.86
77366;BME280;66430;50.182;11.704;2023-04-15T04:32:23;93454.33;;;7.32;43.56
77366;BME280;66430;50.182;11.704;2023-04-15T04:34:47;93460.18;;;7.15;43.69
77366;BME280;66430;50.182;11.704;2023-04-15T04:37:13;93465.96;;;6.86;43.89
77366;BME280;66430;50.182;11.704;2023-04-15T04:39:38;93465.77;;;7.03;43.92
77366;BME280;66430;50.182;11.704;2023-04-15T04:42:03;93468.66;;;6.86;44.20
77366;BME280;66430;50.182;11.704;2023-04-15T04:44:29;93475.00;;;7.17;43.69
77366;BME280;66430;50.182;11.704;2023-04-15T04:46:54;93473.35;;;6.63;43.83
77366;BME280;66430;50.182;11.704;2023-04-15T04:49:20;93473.35;;;7.15;43.81
77366;BME280;66430;50.182;11.704;2023-04-15T04:51:46;93474.68;;;7.08;43.89
77366;BME280;66430;50.182;11.704;2023-04-15T04:54:11;93474.98;;;7.14;43.89
77366;BME280;66430;50.182;11.704;2023-04-15T04:56:37;93472.98;;;7.23;43.90
77366;BME280;66430;50.182;11.704;2023-04-15T04:59:03;93471.25;;;7.07;43.38
77366;BME280;66430;50.182;11.704;2023-04-15T05:01:28;93471.53;;;7.39;43.41
77366;BME280;66430;50.182;11.704;2023-04-15T05:03:54;93471.96;;;7.45;43.54
77366;BME280;66430;50.182;11.704;2023-04-15T05:06:19;93470.30;;;7.30;43.14
77366;BME280;66430;50.182;11.704;2023-04-15T05:08:44;93468.59;;;7.44;43.09
77366;BME280;66430;50.182;11.704;2023-04-15T05:11:10;93469.97;;;7.18;43.18
77366;BME280;66430;50.182;11.704;2023-04-15T05:13:36;93473.92;;;7.49;43.01
77366;BME280;66430;50.182;11.704;2023-04-15T05:16:01;93475.08;;;6.89;43.60
77366;BME280;66430;50.182;11.704;2023-04-15T05:18:27;93476.47;;;6.76;44.03
77366;BME280;66430;50.182;11.704;2023-04-15T05:20:52;93475.77;;;6.94;43.98
77366;BME280;66430;50.182;11.704;2023-04-15T05:23:18;93477.80;;;7.25;43.73
77366;BME280;66430;50.182;11.704;2023-04-15T05:25:43;93478.27;;;7.48;43.28
77366;BME280;66430;50.182;11.704;2023-04-15T05:28:09;93476.90;;;7.55;43.44
77366;BME280;66430;50.182;11.704;2023-04-15T05:30:34;93475.50;;;7.44;43.05
77366;BME280;66430;50.182;11.704;2023-04-15T05:33:00;93479.86;;;7.67;42.86
77366;BME280;66430;50.182;11.704;2023-04-15T05:35:25;93480.51;;;7.43;42.99
77366;BME280;66430;50.182;11.704;2023-04-15T05:37:51;93485.90;;;7.23;43.36
77366;BME280;66430;50.182;11.704;2023-04-15T05:40:17;93484.76;;;7.60;43.19
77366;BME280;66430;50.182;11.704;2023-04-15T05:42:42;93489.87;;;7.23;43.31
77366;BME280;66430;50.182;11.704;2023-04-15T05:45:08;93489.22;;;7.26;43.36
77366;BME280;66430;50.182;11.704;2023-04-15T05:47:35;93488.99;;;7.36;43.82
77366;BME280;66430;50.182;11.704;2023-04-15T05:49:59;93489.88;;;7.62;43.32
77366;BME280;66430;50.182;11.704;2023-04-15T05:52:25;93490.55;;;7.51;43.34
77366;BME280;66430;50.182;11.704;2023-04-15T05:54:50;93491.19;;;7.26;43.14
77366;BME280;66430;50.182;11.704;2023-04-15T05:57:15;93488.08;;;7.24;43.37
77366;BME280;66430;50.182;11.704;2023-04-15T05:59:41;93488.13;;;7.60;43.12
77366;BME280;66430;50.182;11.704;2023-04-15T06:02:06;93491.56;;;7.38;43.01
77366;BME280;66430;50.182;11.704;2023-04-15T06:04:32;93489.99;;;7.42;43.16
77366;BME280;66430;50.182;11.704;2023-04-15T06:06:58;93489.94;;;7.50;43.04
77366;BME280;66430;50.182;11.704;2023-04-15T06:09:23;93490.66;;;7.41;43.35
77366;BME280;66430;50.182;11.704;2023-04-15T06:11:49;93482.86;;;7.47;43.39
77366;BME280;66430;50.182;11.704;2023-04-15T06:14:14;93485.78;;;7.39;43.92
77366;BME280;66430;50.182;11.704;2023-04-15T06:16:40;93481.60;;;7.59;43.67
77366;BME280;66430;50.182;11.704;2023-04-15T06:19:05;93479.84;;;7.82;43.06
77366;BME280;66430;50.182;11.704;2023-04-15T06:21:31;93479.72;;;7.50;43.55
77366;BME280;66430;50.182;11.704;2023-04-15T06:23:58;93484.52;;;7.53;44.23
77366;BME280;66430;50.182;11.704;2023-04-15T06:26:22;93479.74;;;7.57;44.69
77366;BME280;66430;50.182;11.704;2023-04-15T06:28:47;93486.65;;;7.58;44.79
77366;BME280;66430;50.182;11.704;2023-04-15T06:31:14;93488.86;;;7.58;44.26
77366;BME280;66430;50.182;11.704;2023-04-15T06:33:38;93493.32;;;7.93;44.14
77366;BME280;66430;50.182;11.704;2023-04-15T06:36:04;93494.88;;;7.83;43.99
77366;BME280;66430;50.182;11.704;2023-04-15T06:38:31;93493.72;;;7.67;43.93
77366;BME280;66430;50.182;11.704;2023-04-15T06:40:55;93496.55;;;8.10;43.23
77366;BME280;66430;50.182;11.704;2023-04-15T06:43:21;93496.98;;;8.16;42.68
77366;BME280;66430;50.182;11.704;2023-04-15T06:45:46;93502.30;;;7.92;42.96
77366;BME280;66430;50.182;11.704;2023-04-15T06:48:11;93499.85;;;8.30;43.17
77366;BME280;66430;50.182;11.704;2023-04-15T06:50:37;93501.05;;;8.02;43.89
77366;BME280;66430;50.182;11.704;2023-04-15T06:53:03;93501.29;;;8.10;43.39
77366;BME280;66430;50.182;11.704;2023-04-15T06:55:28;93503.53;;;7.90;43.51
77366;BME280;66430;50.182;11.704;2023-04-15T06:57:54;93505.65;;;8.04;42.88
77366;BME280;66430;50.182;11.704;2023-04-15T07:00:20;93508.15;;;8.11;42.62
77366;BME280;66430;50.182;11.704;2023-04-15T07:02:45;93509.63;;;8.21;43.31
77366;BME280;66430;50.182;11.704;2023-04-15T07:05:10;93511.91;;;8.11;42.91
77366;BME280;66430;50.182;11.704;2023-04-15T07:07:36;93505.46;;;8.32;43.40
77366;BME280;66430;50.182;11.704;2023-04-15T07:10:01;93505.64;;;8.01;43.58
77366;BME280;66430;50.182;11.704;2023-04-15T07:12:27;93512.61;;;8.06;43.59
77366;BME280;66430;50.182;11.704;2023-04-15T07:14:52;93511.33;;;7.87;43.32
77366;BME280;66430;50.182;11.704;2023-04-15T07:17:18;93511.52;;;7.82;43.25
77366;BME280;66430;50.182;11.704;2023-04-15T07:19:43;93508.92;;;7.85;43.21
77366;BME280;66430;50.182;11.704;2023-04-15T07:22:09;93512.89;;;7.51;43.50
77366;BME280;66430;50.182;11.704;2023-04-15T07:24:35;93510.33;;;7.96;43.90
77366;BME280;66430;50.182;11.704;2023-04-15T07:27:00;93513.91;;;8.15;43.57
77366;BME280;66430;50.182;11.704;2023-04-15T07:29:27;93518.68;;;8.01;43.85
77366;BME280;66430;50.182;11.704;2023-04-15T07:31:52;93520.41;;;8.14;43.70
77366;BME280;66430;50.182;11.704;2023-04-15T07:34:17;93520.80;;;7.97;43.42
77366;BME280;66430;50.182;11.704;2023-04-15T07:36:41;93516.42;;;7.72;43.65
77366;BME280;66430;50.182;11.704;2023-04-15T07:39:07;93518.90;;;8.00;44.05
77366;BME280;66430;50.182;11.704;2023-04-15T07:41:33;93520.48;;;8.09;44.02
77366;BME280;66430;50.182;11.704;2023-04-15T07:43:58;93519.34;;;7.83;44.00
77366;BME280;66430;50.182;11.704;2023-04-15T07:46:24;93525.72;;;7.80;44.30
77366;BME280;66430;50.182;11.704;2023-04-15T07:48:49;93527.38;;;7.95;44.15
77366;BME280;66430;50.182;11.704;2023-04-15T07:51:15;93531.95;;;8.08;43.93
77366;BME280;66430;50.182;11.704;2023-04-15T07:53:40;93534.17;;;8.28;43.45
77366;BME280;66430;50.182;11.704;2023-04-15T07:56:06;93535.31;;;8.23;43.69
77366;BME280;66430;50.182;11.704;2023-04-15T07:58:31;93540.20;;;8.27;43.89
77366;BME280;66430;50.182;11.704;2023-04-15T08:00:57;93542.77;;;8.45;43.99
77366;BME280;66430;50.182;11.704;2023-04-15T08:03:23;93544.19;;;8.11;43.60
77366;BME280;66430;50.182;11.704;2023-04-15T08:05:48;93544.66;;;8.00;44.11
77366;BME280;66430;50.182;11.704;2023-04-15T08:08:13;93544.19;;;7.74;44.25
77366;BME280;66430;50.182;11.704;2023-04-15T08:10:39;93542.19;;;7.67;44.65
77366;BME280;66430;50.182;11.704;2023-04-15T08:13:04;93548.36;;;8.23;44.22
77366;BME280;66430;50.182;11.704;2023-04-15T08:15:29;93549.00;;;7.88;44.10
77366;BME280;66430;50.182;11.704;2023-04-15T08:17:55;93550.41;;;8.22;44.30
77366;BME280;66430;50.182;11.704;2023-04-15T08:20:21;93557.72;;;8.17;43.52
77366;BME280;66430;50.182;11.704;2023-04-15T08:22:46;93552.29;;;8.72;42.88
77366;BME280;66430;50.182;11.704;2023-04-15T08:25:12;93559.22;;;8.55;42.38
77366;BME280;66430;50.182;11.704;2023-04-15T08:27:37;93562.31;;;8.47;42.30
77366;BME280;66430;50.182;11.704;2023-04-15T08:30:03;93562.70;;;8.02;43.31
77366;BME280;66430;50.182;11.704;2023-04-15T08:32:28;93564.20;;;7.93;43.45
77366;BME280;66430;50.182;11.704;2023-04-15T08:34:54;93563.72;;;8.26;43.39
77366;BME280;66430;50.182;11.704;2023-04-15T08:37:19;93564.76;;;8.31;42.73
77366;BME280;66430;50.182;11.704;2023-04-15T08:39:45;93566.26;;;7.88;43.30
77366;BME280;66430;50.182;11.704;2023-04-15T08:42:14;93566.89;;;8.07;42.95
77366;BME280;66430;50.182;11.704;2023-04-15T08:44:36;93570.23;;;8.05;43.43
77366;BME280;66430;50.182;11.704;2023-04-15T08:47:02;93572.31;;;7.90;43.62
77366;BME280;66430;50.182;11.704;2023-04-15T08:49:28;93572.01;;;8.10;42.76
77366;BME280;66430;50.182;11.704;2023-04-15T08:51:52;93579.69;;;8.01;43.08
77366;BME280;66430;50.182;11.704;2023-04-15T08:54:18;93573.36;;;8.14;41.94
77366;BME280;66430;50.182;11.704;2023-04-15T08:56:44;93574.98;;;7.90;42.73
77366;BME280;66430;50.182;11.704;2023-04-15T08:59:09;93577.39;;;7.67;43.22
77366;BME280;66430;50.182;11.704;2023-04-15T09:01:34;93577.63;;;7.84;43.22
77366;BME280;66430;50.182;11.704;2023-04-15T09:04:01;93577.00;;;8.09;42.39
77366;BME280;66430;50.182;11.704;2023-04-15T09:06:25;93575.64;;;8.35;42.44
77366;BME280;66430;50.182;11.704;2023-04-15T09:08:51;93577.01;;;8.37;42.23
77366;BME280;66430;50.182;11.704;2023-04-15T09:11:16;93580.12;;;8.16;43.33
77366;BME280;66430;50.182;11.704;2023-04-15T09:13:42;93584.84;;;8.51;41.79
77366;BME280;66430;50.182;11.704;2023-04-15T09:16:09;93588.79;;;8.10;42.64
77366;BME280;66430;50.182;11.704;2023-04-15T09:18:34;93584.51;;;7.92;43.50
77366;BME280;66430;50.182;11.704;2023-04-15T09:21:03;93586.10;;;8.38;42.94
77366;BME280;66430;50.182;11.704;2023-04-15T09:23:24;93589.91;;;8.66;42.29
77366;BME280;66430;50.182;11.704;2023-04-15T09:25:50;93590.44;;;8.46;42.07
77366;BME280;66430;50.182;11.704;2023-04-15T09:28:15;93590.54;;;8.78;42.26
77366;BME280;66430;50.182;11.704;2023-04-15T09:30:45;93593.92;;;8.75;42.36
77366;BME280;66430;50.182;11.704;2023-04-15T09:33:05;93598.58;;;8.90;42.01
77366;BME280;66430;50.182;11.704;2023-04-15T09:35:31;93599.21;;;8.32;42.72
77366;BME280;66430;50.182;11.704;2023-04-15T09:38:08;93606.50;;;8.72;42.22
77366;BME280;66430;50.182;11.704;2023-04-15T09:40:31;93608.11;;;8.41;42.11
77366;BME280;66430;50.182;11.704;2023-04-15T09:42:54;93612.11;;;8.61;42.18
77366;BME280;66430;50.182;11.704;2023-04-15T09:45:19;93612.98;;;8.77;41.83
77366;BME280;66430;50.182;11.704;2023-04-15T09:47:39;93615.99;;;8.65;42.75
77366;BME280;66430;50.182;11.704;2023-04-15T09:50:05;93616.37;;;8.27;42.46
77366;BME280;66430;50.182;11.704;2023-04-15T09:52:30;93611.85;;;8.08;42.84
77366;BME280;66430;50.182;11.704;2023-04-15T09:54:57;93608.92;;;8.39;43.01
77366;BME280;66430;50.182;11.704;2023-04-15T09:57:21;93608.03;;;8.23;42.78
77366;BME280;66430;50.182;11.704;2023-04-15T09:59:47;93610.49;;;8.79;43.15
77366;BME280;66430;50.182;11.704;2023-04-15T10:02:12;93614.95;;;7.94;45.40
77366;BME280;66430;50.182;11.704;2023-04-15T10:04:40;93616.40;;;8.22;43.41
77366;BME280;66430;50.182;11.704;2023-04-15T10:07:05;93611.45;;;8.41;43.21
77366;BME280;66430;50.182;11.704;2023-04-15T10:09:29;93611.79;;;8.62;42.74
77366;BME280;66430;50.182;11.704;2023-04-15T10:11:54;93613.63;;;8.66;42.56
77366;BME280;66430;50.182;11.704;2023-04-15T10:14:20;93617.90;;;8.60;42.26
77366;BME280;66430;50.182;11.704;2023-04-15T10:16:47;93616.84;;;8.76;42.32
77366;BME280;66430;50.182;11.704;2023-04-15T10:19:11;93618.92;;;9.04;42.75
77366;BME280;66430;50.182;11.704;2023-04-15T10:21:37;93622.65;;;8.53;42.59
77366;BME280;66430;50.182;11.704;2023-04-15T10:24:02;93622.42;;;8.67;42.44
77366;BME280;66430;50.182;11.704;2023-04-15T10:26:27;93621.40;;;8.54;42.91
77366;BME280;66430;50.182;11.704;2023-04-15T10:28:53;93625.39;;;8.60;42.55
77366;BME280;66430;50.182;11.704;2023-04-15T10:31:18;93625.88;;;8.55;42.87
77366;BME280;66430;50.182;11.704;2023-04-15T10:33:44;93627.86;;;8.71;42.19
77366;BME280;66430;50.182;11.704;2023-04-15T10:36:09;93634.06;;;8.75;42.26
77366;BME280;66430;50.182;11.704;2023-04-15T10:38:38;93635.84;;;9.19;42.20
77366;BME280;66430;50.182;11.704;2023-04-15T10:41:14;93636.47;;;8.90;42.55
77366;BME280;66430;50.182;11.704;2023-04-15T10:43:25;93636.91;;;9.29;42.28
77366;BME280;66430;50.182;11.704;2023-04-15T10:45:52;93633.98;;;9.10;42.66
77366;BME280;66430;50.182;11.704;2023-04-15T10:48:17;93634.15;;;9.25;41.83
77366;BME280;66430;50.182;11.704;2023-04-15T10:53:10;93629.56;;;9.05;42.13
77366;BME280;66430;50.182;11.704;2023-04-15T10:55:33;93628.49;;;9.39;41.81
77366;BME280;66430;50.182;11.704;2023-04-15T10:58:00;93632.71;;;9.15;41.98
77366;BME280;66430;50.182;11.704;2023-04-15T11:00:27;93631.26;;;9.09;41.60
77366;BME280;66430;50.182;11.704;2023-04-15T11:02:52;93635.15;;;9.11;42.34
77366;BME280;66430;50.182;11.704;2023-04-15T11:05:15;93632.69;;;8.99;42.24
77366;BME280;66430;50.182;11.704;2023-04-15T11:07:47;93637.93;;;9.06;42.64
77366;BME280;66430;50.182;11.704;2023-04-15T11:12:40;93640.46;;;9.38;43.03
77366;BME280;66430;50.182;11.704;2023-04-15T11:14:58;93645.37;;;9.47;41.59
77366;BME280;66430;50.182;11.704;2023-04-15T11:17:26;93644.28;;;9.52;41.51
77366;BME280;66430;50.182;11.704;2023-04-15T11:19:48;93645.89;;;9.13;41.67
77366;BME280;66430;50.182;11.704;2023-04-15T11:22:13;93648.11;;;9.23;42.10
77366;BME280;66430;50.182;11.704;2023-04-15T11:24:46;93649.84;;;9.42;41.85
77366;BME280;66430;50.182;11.704;2023-04-15T11:27:04;93654.51;;;9.36;41.81
77366;BME280;66430;50.182;11.704;2023-04-15T11:29:30;93655.43;;;9.17;41.87
77366;BME280;66430;50.182;11.704;2023-04-15T11:32:04;93656.23;;;9.23;42.46
77366;BME280;66430;50.182;11.704;2023-04-15T11:34:22;93658.36;;;9.44;42.02
77366;BME280;66430;50.182;11.704;2023-04-15T11:36:46;93659.87;;;9.42;42.31
77366;BME280;66430;50.182;11.704;2023-04-15T11:39:12;93661.49;;;9.07;42.31
77366;BME280;66430;50.182;11.704;2023-04-15T11:41:38;93666.22;;;9.00;42.73
77366;BME280;66430;50.182;11.704;2023-04-15T11:44:14;93668.57;;;8.73;42.99
77366;BME280;66430;50.182;11.704;2023-04-15T11:46:29;93670.96;;;8.53;43.75
77366;BME280;66430;50.182;11.704;2023-04-15T11:48:54;93669.71;;;8.75;43.35
77366;BME280;66430;50.182;11.704;2023-04-15T11:51:19;93672.32;;;9.04;43.54
77366;BME280;66430;50.182;11.704;2023-04-15T11:53:46;93676.74;;;8.98;42.95
77366;BME280;66430;50.182;11.704;2023-04-15T11:56:16;93682.96;;;9.18;42.71
77366;BME280;66430;50.182;11.704;2023-04-15T11:58:37;93679.77;;;9.03;42.53
77366;BME280;66430;50.182;11.704;2023-04-15T12:01:02;93683.63;;;9.43;42.47
77366;BME280;66430;50.182;11.704;2023-04-15T12:03:28;93680.33;;;8.93;43.02
77366;BME280;66430;50.182;11.704;2023-04-15T12:08:17;93688.27;;;9.27;42.69
77366;BME280;66430;50.182;11.704;2023-04-15T12:10:43;93682.48;;;9.30;43.32
77366;BME280;66430;50.182;11.704;2023-04-15T12:13:09;93686.71;;;9.45;42.43
77366;BME280;66430;50.182;11.704;2023-04-15T12:15:37;93693.00;;;9.26;42.75
77366;BME280;66430;50.182;11.704;2023-04-15T12:17:59;93698.64;;;9.74;42.32
77366;BME280;66430;50.182;11.704;2023-04-15T12:20:25;93700.87;;;9.84;41.89
77366;BME280;66430;50.182;11.704;2023-04-15T12:22:50;93708.03;;;9.64;42.07
77366;BME280;66430;50.182;11.704;2023-04-15T12:25:16;93706.15;;;8.90;43.32
77366;BME280;66430;50.182;11.704;2023-04-15T12:27:49;93710.20;;;8.94;43.31
77366;BME280;66430;50.182;11.704;2023-04-15T12:30:08;93718.08;;;8.51;43.94
77366;BME280;66430;50.182;11.704;2023-04-15T12:32:35;93717.93;;;8.86;43.95
77366;BME280;66430;50.182;11.704;2023-04-15T12:34:58;93715.67;;;9.11;43.55
77366;BME280;66430;50.182;11.704;2023-04-15T12:37:23;93719.24;;;8.84;44.50
77366;BME280;66430;50.182;11.704;2023-04-15T12:39:49;93725.10;;;9.04;43.67
77366;BME280;66430;50.182;11.704;2023-04-15T12:42:15;93729.93;;;9.21;43.53
77366;BME280;66430;50.182;11.704;2023-04-15T12:44:46;93733.31;;;9.30;43.27
77366;BME280;66430;50.182;11.704;2023-04-15T12:47:07;93736.69;;;9.04;43.61
77366;BME280;66430;50.182;11.704;2023-04-15T12:49:31;93735.03;;;9.28;43.73
77366;BME280;66430;50.182;11.704;2023-04-15T12:51:58;93741.60;;;9.40;43.58
77366;BME280;66430;50.182;11.704;2023-04-15T12:54:22;93742.11;;;9.47;43.21
77366;BME280;66430;50.182;11.704;2023-04-15T12:56:49;93745.23;;;9.40;43.18
77366;BME280;66430;50.182;11.704;2023-04-15T12:59:13;93748.97;;;10.10;43.14